Cory, Indiana
Current Conditions -  °F | °C
As of 8:53 PM on Saturday 25 Oct 2014 (Local Time) from KHUF Reporting Station
Clear Clear  
Wind Chill: 66°   Ceiling: Unl
Heat Index: 66°   Visibility: 10mi
Dew Point: 46°   Wind: 5mph
Humidity: 48%   Direction: 280°W
Pressure: 29.97"   Gusts: NA
Location:  39.38°N, 87.21°W
Report Text: KHUF 260053Z 28004KT 10SM CLR 19/08 A2997 RMK AO2 SLP147 T01890078
Loading
Personal Weather Stations






























Interactive Weather Map
Tropical Storm Tracking
New forecast layout! Learn more

10-Day Weather Forecast

Advertisements
Track Severe Weather on mobile